Time,TemperatureF,DewpointF,PressureIn,WindDirection,WindDirectionDegrees,WindSpeedMPH,WindSpeedGustMPH,Humidity,HourlyPrecipIn,Conditions,Clouds,dailyrainin,SoftwareType,DateUTC
2013-12-12 00:11:00,3.0,-7.4,30.63,West,280,6.0,6.0,61,0.00,CLR,CLR,0.00,WeatherDisplay:10.37,2013-12-12 06:11:00,
2013-12-12 00:41:00,3.0,-6.1,30.61,West,280,0.0,0.0,65,0.00,FEW,FEW,0.00,WeatherDisplay:10.37,2013-12-12 06:41:00,
2013-12-12 01:11:00,3.0,-6.1,30.61,West,280,0.0,0.0,65,0.00,FEW,FEW,0.00,WeatherDisplay:10.37,2013-12-12 07:11:00,
2013-12-12 01:41:00,3.0,-6.1,30.59,SW,220,3.0,3.0,65,0.00,CLR,CLR,0.00,WeatherDisplay:10.37,2013-12-12 07:41:00,
2013-12-12 02:11:00,3.0,-6.1,30.59,SW,220,3.0,3.0,65,0.00,CLR,CLR,0.00,WeatherDisplay:10.37,2013-12-12 08:11:00,
2013-12-12 02:41:00,1.9,-5.3,30.56,SW,220,0.0,0.0,71,0.00,CLR,CLR,0.00,WeatherDisplay:10.37,2013-12-12 08:41:00,
2013-12-12 03:11:00,1.9,-5.3,30.56,SW,220,0.0,0.0,71,0.00,CLR,CLR,0.00,WeatherDisplay:10.37,2013-12-12 09:11:00,
2013-12-12 03:41:00,1.9,-5.3,30.57,SSW,210,5.0,5.0,71,0.00,CLR,CLR,0.00,WeatherDisplay:10.37,2013-12-12 09:41:00,
2013-12-12 04:11:00,1.9,-5.3,30.57,SSW,210,5.0,5.0,71,0.00,CLR,CLR,0.00,WeatherDisplay:10.37,2013-12-12 10:11:00,
2013-12-12 04:41:00,1.9,-5.3,30.54,SW,230,7.0,7.0,71,0.00,CLR,CLR,0.00,WeatherDisplay:10.37,2013-12-12 10:41:00,
2013-12-12 05:11:00,1.9,-5.3,30.54,SW,230,7.0,7.0,71,0.00,CLR,CLR,0.00,WeatherDisplay:10.37,2013-12-12 11:11:00,
2013-12-12 05:41:00,1.9,-4.2,30.52,SSW,210,7.0,7.0,75,0.00,CLR,CLR,0.00,WeatherDisplay:10.37,2013-12-12 11:41:00,
2013-12-12 06:11:00,1.9,-4.2,30.52,SSW,210,7.0,7.0,75,0.00,CLR,CLR,0.00,WeatherDisplay:10.37,2013-12-12 12:11:00,
2013-12-12 06:41:00,3.0,-4.3,30.51,SSW,200,8.0,8.0,71,0.00,BKN,BKN,0.00,WeatherDisplay:10.37,2013-12-12 12:41:00,
2013-12-12 07:11:00,3.0,-4.3,30.51,SSW,200,8.0,8.0,71,0.00,BKN,BKN,0.00,WeatherDisplay:10.37,2013-12-12 13:11:00,
2013-12-12 07:41:00,3.9,-4.3,30.50,SSW,210,10.0,10.0,68,0.00,CLR,CLR,0.00,WeatherDisplay:10.37,2013-12-12 13:41:00,
2013-12-12 08:11:00,3.9,-4.3,30.50,SSW,210,10.0,10.0,68,0.00,CLR,CLR,0.00,WeatherDisplay:10.37,2013-12-12 14:11:00,
2013-12-12 08:41:00,5.0,-3.0,30.48,SSW,200,10.0,10.0,69,0.00,CLR,CLR,0.00,WeatherDisplay:10.37,2013-12-12 14:41:00,
2013-12-12 09:11:00,5.0,-3.0,30.48,SSW,200,10.0,10.0,69,0.00,CLR,CLR,0.00,WeatherDisplay:10.37,2013-12-12 15:11:00,
2013-12-12 09:41:00,10.0,-0.4,30.47,SSW,210,12.0,12.0,62,0.00,CLR,CLR,0.00,WeatherDisplay:10.37,2013-12-12 15:41:00,
2013-12-12 10:11:00,10.0,-0.4,30.47,SSW,210,12.0,12.0,62,0.00,CLR,CLR,0.00,WeatherDisplay:10.37,2013-12-12 16:11:00,
2013-12-12 10:41:00,15.1,1.8,30.45,SW,220,16.0,16.0,55,0.00,CLR,CLR,0.00,WeatherDisplay:10.37,2013-12-12 16:41:00,
2013-12-12 11:11:00,15.1,1.8,30.45,SW,220,16.0,16.0,55,0.00,CLR,CLR,0.00,WeatherDisplay:10.37,2013-12-12 17:11:00,
2013-12-12 11:41:00,19.9,4.7,30.43,SW,230,17.0,17.0,51,0.00,CLR,CLR,0.00,WeatherDisplay:10.37,2013-12-12 17:41:00,
2013-12-12 12:11:00,19.9,4.7,30.43,SW,230,17.0,17.0,51,0.00,CLR,CLR,0.00,WeatherDisplay:10.37,2013-12-12 18:11:00,
2013-12-12 12:41:00,21.9,6.5,30.38,SSW,210,12.0,12.0,51,0.00,CLR,CLR,0.00,WeatherDisplay:10.37,2013-12-12 18:41:00,
2013-12-12 13:11:00,21.9,6.5,30.38,SSW,210,12.0,12.0,51,0.00,CLR,CLR,0.00,WeatherDisplay:10.37,2013-12-12 19:11:00,
2013-12-12 13:41:00,25.0,8.5,30.36,SW,230,8.0,8.0,49,0.00,CLR,CLR,0.00,WeatherDisplay:10.37,2013-12-12 19:41:00,
2013-12-12 14:11:00,25.0,8.5,30.36,SW,230,8.0,8.0,49,0.00,CLR,CLR,0.00,WeatherDisplay:10.37,2013-12-12 20:11:00,
2013-12-12 14:41:00,28.9,11.7,30.35,West,270,12.0,12.0,48,0.00,CLR,CLR,0.00,WeatherDisplay:10.37,2013-12-12 20:41:00,
2013-12-12 15:11:00,28.9,11.7,30.35,West,270,12.0,12.0,48,0.00,CLR,CLR,0.00,WeatherDisplay:10.37,2013-12-12 21:11:00,
2013-12-12 15:41:00,32.0,13.5,30.32,WSW,250,9.0,9.0,46,0.00,CLR,CLR,0.00,WeatherDisplay:10.37,2013-12-12 21:41:00,
2013-12-12 16:11:00,32.0,13.5,30.32,WSW,250,9.0,9.0,46,0.00,CLR,CLR,0.00,WeatherDisplay:10.37,2013-12-12 22:11:00,
2013-12-12 16:41:00,30.0,13.6,30.32,WSW,250,6.0,6.0,50,0.00,CLR,CLR,0.00,WeatherDisplay:10.37,2013-12-12 22:41:00,
2013-12-12 17:11:00,30.0,13.6,30.32,WSW,250,6.0,6.0,50,0.00,CLR,CLR,0.00,WeatherDisplay:10.37,2013-12-12 23:11:00,
2013-12-12 17:41:00,24.1,12.6,30.31,SSW,210,6.0,6.0,61,0.00,CLR,CLR,0.00,WeatherDisplay:10.37,2013-12-12 23:41:00,
2013-12-12 18:11:00,24.1,12.6,30.31,SSW,210,6.0,6.0,61,0.00,CLR,CLR,0.00,WeatherDisplay:10.37,2013-12-13 00:11:00,
2013-12-12 18:41:00,23.0,11.9,30.28,SSW,200,5.0,5.0,62,0.00,CLR,CLR,0.00,WeatherDisplay:10.37,2013-12-13 00:41:00,
2013-12-12 19:11:00,23.0,11.9,30.28,SSW,200,5.0,5.0,62,0.00,CLR,CLR,0.00,WeatherDisplay:10.37,2013-12-13 01:11:00,
2013-12-12 19:41:00,24.1,12.6,30.27,SSW,210,3.0,3.0,61,0.00,CLR,CLR,0.00,WeatherDisplay:10.37,2013-12-13 01:41:00,
2013-12-12 20:11:00,24.1,12.6,30.27,SSW,210,3.0,3.0,61,0.00,CLR,CLR,0.00,WeatherDisplay:10.37,2013-12-13 02:11:00,
2013-12-12 20:41:00,25.0,12.7,30.26,SSW,210,0.0,0.0,59,0.00,BKN,BKN,0.00,WeatherDisplay:10.37,2013-12-13 02:41:00,
2013-12-12 21:11:00,25.0,12.7,30.26,SSW,210,0.0,0.0,59,0.00,BKN,BKN,0.00,WeatherDisplay:10.37,2013-12-13 03:11:00,
2013-12-12 21:41:00,23.0,13.7,30.27,South,170,5.0,5.0,67,0.00,CLR,CLR,0.00,WeatherDisplay:10.37,2013-12-13 03:41:00,
2013-12-12 22:11:00,23.0,13.7,30.27,South,170,5.0,5.0,67,0.00,CLR,CLR,0.00,WeatherDisplay:10.37,2013-12-13 04:11:00,
2013-12-12 22:41:00,21.9,12.6,30.26,SSW,200,5.0,5.0,67,0.00,CLR,CLR,0.00,WeatherDisplay:10.37,2013-12-13 04:41:00,
2013-12-12 23:11:00,21.9,12.6,30.26,SSW,200,5.0,5.0,67,0.00,CLR,CLR,0.00,WeatherDisplay:10.37,2013-12-13 05:11:00,
2013-12-12 23:41:00,21.0,11.8,30.24,SSW,200,6.0,6.0,67,0.00,CLR,CLR,0.00,WeatherDisplay:10.37,2013-12-13 05:41:00,